sensor_id;sensor_type;location;lat;lon;timestamp;temperature;humidity
42141;DHT22;27809;51.864;5.646;2022-11-15T00:01:44;7.20;99.90
42141;DHT22;27809;51.864;5.646;2022-11-15T00:04:10;7.20;99.90
42141;DHT22;27809;51.864;5.646;2022-11-15T00:06:35;7.20;99.90
42141;DHT22;27809;51.864;5.646;2022-11-15T00:09:01;7.20;99.90
42141;DHT22;27809;51.864;5.646;2022-11-15T00:11:27;7.20;99.90
42141;DHT22;27809;51.864;5.646;2022-11-15T00:13:55;7.20;99.90
42141;DHT22;27809;51.864;5.646;2022-11-15T00:16:21;7.30;99.90
42141;DHT22;27809;51.864;5.646;2022-11-15T00:18:47;7.30;99.90
42141;DHT22;27809;51.864;5.646;2022-11-15T00:21:13;7.30;99.90
42141;DHT22;27809;51.864;5.646;2022-11-15T00:23:39;7.30;99.90
42141;DHT22;27809;51.864;5.646;2022-11-15T00:26:05;7.30;99.90
42141;DHT22;27809;51.864;5.646;2022-11-15T00:28:31;7.40;99.90
42141;DHT22;27809;51.864;5.646;2022-11-15T00:31:00;7.40;99.90
42141;DHT22;27809;51.864;5.646;2022-11-15T00:33:26;7.40;99.90
42141;DHT22;27809;51.864;5.646;2022-11-15T00:35:52;7.40;99.90
42141;DHT22;27809;51.864;5.646;2022-11-15T00:38:17;7.40;99.90
42141;DHT22;27809;51.864;5.646;2022-11-15T00:40:43;7.50;99.90
42141;DHT22;27809;51.864;5.646;2022-11-15T00:43:08;7.40;99.90
42141;DHT22;27809;51.864;5.646;2022-11-15T00:45:34;7.50;99.90
42141;DHT22;27809;51.864;5.646;2022-11-15T00:47:59;7.50;99.90
42141;DHT22;27809;51.864;5.646;2022-11-15T00:50:25;7.50;99.90
42141;DHT22;27809;51.864;5.646;2022-11-15T00:52:50;7.60;99.90
42141;DHT22;27809;51.864;5.646;2022-11-15T00:55:17;7.60;99.90
42141;DHT22;27809;51.864;5.646;2022-11-15T00:57:43;7.70;99.90
42141;DHT22;27809;51.864;5.646;2022-11-15T01:00:09;7.70;99.90
42141;DHT22;27809;51.864;5.646;2022-11-15T01:02:35;7.70;99.90
42141;DHT22;27809;51.864;5.646;2022-11-15T01:05:00;7.70;99.90
42141;DHT22;27809;51.864;5.646;2022-11-15T01:07:26;7.70;99.90
42141;DHT22;27809;51.864;5.646;2022-11-15T01:09:51;7.80;99.90
42141;DHT22;27809;51.864;5.646;2022-11-15T01:12:17;7.80;99.90
42141;DHT22;27809;51.864;5.646;2022-11-15T01:14:42;7.80;99.90
42141;DHT22;27809;51.864;5.646;2022-11-15T01:17:08;7.80;99.90
42141;DHT22;27809;51.864;5.646;2022-11-15T01:19:33;7.90;99.90
42141;DHT22;27809;51.864;5.646;2022-11-15T01:21:59;7.90;99.90
42141;DHT22;27809;51.864;5.646;2022-11-15T01:24:25;7.90;99.90
42141;DHT22;27809;51.864;5.646;2022-11-15T01:26:50;7.90;99.90
42141;DHT22;27809;51.864;5.646;2022-11-15T01:29:16;8.00;99.90
42141;DHT22;27809;51.864;5.646;2022-11-15T01:31:41;8.00;99.90
42141;DHT22;27809;51.864;5.646;2022-11-15T01:34:07;8.00;99.90
42141;DHT22;27809;51.864;5.646;2022-11-15T01:36:32;8.10;99.90
42141;DHT22;27809;51.864;5.646;2022-11-15T01:38:58;8.20;99.90
42141;DHT22;27809;51.864;5.646;2022-11-15T01:41:27;8.20;99.90
42141;DHT22;27809;51.864;5.646;2022-11-15T01:44:40;8.30;99.90
42141;DHT22;27809;51.864;5.646;2022-11-15T01:46:42;8.30;99.90
42141;DHT22;27809;51.864;5.646;2022-11-15T01:49:19;8.30;99.90
42141;DHT22;27809;51.864;5.646;2022-11-15T01:51:46;8.30;99.90
42141;DHT22;27809;51.864;5.646;2022-11-15T01:54:16;8.40;99.90
42141;DHT22;27809;51.864;5.646;2022-11-15T01:56:48;8.40;99.90
42141;DHT22;27809;51.864;5.646;2022-11-15T01:59:15;8.50;99.90
42141;DHT22;27809;51.864;5.646;2022-11-15T02:01:42;8.50;99.90
42141;DHT22;27809;51.864;5.646;2022-11-15T02:04:14;8.50;99.90
42141;DHT22;27809;51.864;5.646;2022-11-15T02:06:42;8.50;99.90
42141;DHT22;27809;51.864;5.646;2022-11-15T02:09:09;8.50;99.90
42141;DHT22;27809;51.864;5.646;2022-11-15T02:11:35;8.60;99.90
42141;DHT22;27809;51.864;5.646;2022-11-15T02:14:01;8.60;99.90
42141;DHT22;27809;51.864;5.646;2022-11-15T02:25:14;8.70;99.90
42141;DHT22;27809;51.864;5.646;2022-11-15T02:28:13;8.70;99.90
42141;DHT22;27809;51.864;5.646;2022-11-15T02:30:51;8.70;99.90
42141;DHT22;27809;51.864;5.646;2022-11-15T02:33:40;8.60;99.90
42141;DHT22;27809;51.864;5.646;2022-11-15T02:36:15;8.70;99.90
42141;DHT22;27809;51.864;5.646;2022-11-15T02:38:52;8.70;99.90
42141;DHT22;27809;51.864;5.646;2022-11-15T02:44:04;8.70;99.90
42141;DHT22;27809;51.864;5.646;2022-11-15T02:49:32;8.70;99.90
42141;DHT22;27809;51.864;5.646;2022-11-15T02:51:58;8.80;99.90
42141;DHT22;27809;51.864;5.646;2022-11-15T02:54:26;8.90;99.90
42141;DHT22;27809;51.864;5.646;2022-11-15T02:56:55;8.90;99.90
42141;DHT22;27809;51.864;5.646;2022-11-15T02:59:53;8.90;99.90
42141;DHT22;27809;51.864;5.646;2022-11-15T03:07:51;9.00;99.90
42141;DHT22;27809;51.864;5.646;2022-11-15T03:10:26;9.00;99.90
42141;DHT22;27809;51.864;5.646;2022-11-15T03:12:59;9.20;99.90
42141;DHT22;27809;51.864;5.646;2022-11-15T03:15:32;9.20;99.90
42141;DHT22;27809;51.864;5.646;2022-11-15T03:18:02;9.20;99.90
42141;DHT22;27809;51.864;5.646;2022-11-15T03:20:30;9.30;99.90
42141;DHT22;27809;51.864;5.646;2022-11-15T03:23:01;9.30;99.90
42141;DHT22;27809;51.864;5.646;2022-11-15T03:25:29;9.50;99.90
42141;DHT22;27809;51.864;5.646;2022-11-15T03:27:58;9.50;99.90
42141;DHT22;27809;51.864;5.646;2022-11-15T03:30:26;9.50;99.90
42141;DHT22;27809;51.864;5.646;2022-11-15T03:32:56;9.40;99.90
42141;DHT22;27809;51.864;5.646;2022-11-15T03:35:26;9.50;99.90
42141;DHT22;27809;51.864;5.646;2022-11-15T03:38:29;9.50;99.90
42141;DHT22;27809;51.864;5.646;2022-11-15T03:40:59;9.60;99.90
42141;DHT22;27809;51.864;5.646;2022-11-15T03:43:41;9.60;99.90
42141;DHT22;27809;51.864;5.646;2022-11-15T03:46:22;9.70;99.90
42141;DHT22;27809;51.864;5.646;2022-11-15T03:49:13;9.70;99.90
42141;DHT22;27809;51.864;5.646;2022-11-15T03:51:40;9.70;99.90
42141;DHT22;27809;51.864;5.646;2022-11-15T03:54:06;9.80;99.90
42141;DHT22;27809;51.864;5.646;2022-11-15T03:56:31;9.70;99.90
42141;DHT22;27809;51.864;5.646;2022-11-15T03:58:57;9.80;99.90
42141;DHT22;27809;51.864;5.646;2022-11-15T04:01:23;9.80;99.90
42141;DHT22;27809;51.864;5.646;2022-11-15T04:03:48;10.00;99.90
42141;DHT22;27809;51.864;5.646;2022-11-15T04:06:14;9.90;99.90
42141;DHT22;27809;51.864;5.646;2022-11-15T04:08:39;9.90;99.90
42141;DHT22;27809;51.864;5.646;2022-11-15T04:11:05;9.90;99.90
42141;DHT22;27809;51.864;5.646;2022-11-15T04:13:30;9.90;99.90
42141;DHT22;27809;51.864;5.646;2022-11-15T04:15:56;9.90;99.90
42141;DHT22;27809;51.864;5.646;2022-11-15T04:18:21;9.90;99.90
42141;DHT22;27809;51.864;5.646;2022-11-15T04:20:47;9.90;99.90
42141;DHT22;27809;51.864;5.646;2022-11-15T04:23:31;9.80;99.90
42141;DHT22;27809;51.864;5.646;2022-11-15T04:26:18;9.90;99.90
42141;DHT22;27809;51.864;5.646;2022-11-15T04:28:44;10.00;99.90
42141;DHT22;27809;51.864;5.646;2022-11-15T04:31:29;10.00;99.90
42141;DHT22;27809;51.864;5.646;2022-11-15T04:33:54;10.00;99.90
42141;DHT22;27809;51.864;5.646;2022-11-15T04:36:21;10.10;99.90
42141;DHT22;27809;51.864;5.646;2022-11-15T04:39:05;9.90;99.90
42141;DHT22;27809;51.864;5.646;2022-11-15T04:41:31;9.90;99.90
42141;DHT22;27809;51.864;5.646;2022-11-15T04:43:56;9.90;99.90
42141;DHT22;27809;51.864;5.646;2022-11-15T04:46:23;9.90;99.90
42141;DHT22;27809;51.864;5.646;2022-11-15T04:48:49;10.00;99.90
42141;DHT22;27809;51.864;5.646;2022-11-15T04:51:15;9.90;99.90
42141;DHT22;27809;51.864;5.646;2022-11-15T04:53:41;9.90;99.90
42141;DHT22;27809;51.864;5.646;2022-11-15T04:56:06;9.90;99.90
42141;DHT22;27809;51.864;5.646;2022-11-15T04:58:32;9.90;99.90
42141;DHT22;27809;51.864;5.646;2022-11-15T05:00:58;9.90;99.90
42141;DHT22;27809;51.864;5.646;2022-11-15T05:03:23;9.90;99.90
42141;DHT22;27809;51.864;5.646;2022-11-15T05:06:07;10.00;99.90
42141;DHT22;27809;51.864;5.646;2022-11-15T05:08:33;9.90;99.90
42141;DHT22;27809;51.864;5.646;2022-11-15T05:10:58;9.90;99.90
42141;DHT22;27809;51.864;5.646;2022-11-15T05:13:24;10.00;99.90
42141;DHT22;27809;51.864;5.646;2022-11-15T05:15:49;10.00;99.90
42141;DHT22;27809;51.864;5.646;2022-11-15T05:18:15;10.00;99.90
42141;DHT22;27809;51.864;5.646;2022-11-15T05:20:40;10.00;99.90
42141;DHT22;27809;51.864;5.646;2022-11-15T05:23:06;10.00;99.90
42141;DHT22;27809;51.864;5.646;2022-11-15T05:25:31;10.00;99.90
42141;DHT22;27809;51.864;5.646;2022-11-15T05:27:57;10.10;99.90
42141;DHT22;27809;51.864;5.646;2022-11-15T05:30:23;10.10;99.90
42141;DHT22;27809;51.864;5.646;2022-11-15T05:32:48;10.10;99.90
42141;DHT22;27809;51.864;5.646;2022-11-15T05:35:33;10.10;99.90
42141;DHT22;27809;51.864;5.646;2022-11-15T05:37:59;10.10;99.90
42141;DHT22;27809;51.864;5.646;2022-11-15T05:40:26;10.20;99.90
42141;DHT22;27809;51.864;5.646;2022-11-15T05:42:52;10.20;99.90
42141;DHT22;27809;51.864;5.646;2022-11-15T05:45:17;10.20;99.90
42141;DHT22;27809;51.864;5.646;2022-11-15T05:47:44;10.20;99.90
42141;DHT22;27809;51.864;5.646;2022-11-15T05:50:14;10.20;99.90
42141;DHT22;27809;51.864;5.646;2022-11-15T05:52:42;10.20;99.90
42141;DHT22;27809;51.864;5.646;2022-11-15T05:55:09;10.20;99.90
42141;DHT22;27809;51.864;5.646;2022-11-15T05:57:35;10.20;99.90
42141;DHT22;27809;51.864;5.646;2022-11-15T06:00:01;10.20;99.90
42141;DHT22;27809;51.864;5.646;2022-11-15T06:02:27;10.20;99.90
42141;DHT22;27809;51.864;5.646;2022-11-15T06:04:52;10.20;99.90
42141;DHT22;27809;51.864;5.646;2022-11-15T06:07:17;10.20;99.90
42141;DHT22;27809;51.864;5.646;2022-11-15T06:09:43;10.20;99.90
42141;DHT22;27809;51.864;5.646;2022-11-15T06:12:08;10.20;99.90
42141;DHT22;27809;51.864;5.646;2022-11-15T06:14:34;10.30;99.90
42141;DHT22;27809;51.864;5.646;2022-11-15T06:16:59;10.30;99.90
42141;DHT22;27809;51.864;5.646;2022-11-15T06:19:25;10.30;99.90
42141;DHT22;27809;51.864;5.646;2022-11-15T06:21:50;10.30;99.90
42141;DHT22;27809;51.864;5.646;2022-11-15T06:24:16;10.40;99.90
42141;DHT22;27809;51.864;5.646;2022-11-15T06:26:41;10.30;99.90
42141;DHT22;27809;51.864;5.646;2022-11-15T06:29:07;10.40;99.90
42141;DHT22;27809;51.864;5.646;2022-11-15T06:31:34;10.40;99.90
42141;DHT22;27809;51.864;5.646;2022-11-15T06:33:59;10.30;99.90
42141;DHT22;27809;51.864;5.646;2022-11-15T06:36:25;10.30;99.90
42141;DHT22;27809;51.864;5.646;2022-11-15T06:38:51;10.30;99.90
42141;DHT22;27809;51.864;5.646;2022-11-15T06:41:16;10.40;99.90
42141;DHT22;27809;51.864;5.646;2022-11-15T06:43:43;10.40;99.90
42141;DHT22;27809;51.864;5.646;2022-11-15T06:46:08;10.30;99.90
42141;DHT22;27809;51.864;5.646;2022-11-15T06:48:35;10.30;99.90
42141;DHT22;27809;51.864;5.646;2022-11-15T06:51:02;10.30;99.90
42141;DHT22;27809;51.864;5.646;2022-11-15T06:53:29;10.30;99.90
42141;DHT22;27809;51.864;5.646;2022-11-15T06:56:00;10.30;99.90
42141;DHT22;27809;51.864;5.646;2022-11-15T06:58:26;10.30;99.90
42141;DHT22;27809;51.864;5.646;2022-11-15T07:00:51;10.30;99.90
42141;DHT22;27809;51.864;5.646;2022-11-15T07:03:17;10.20;99.90
42141;DHT22;27809;51.864;5.646;2022-11-15T07:05:49;10.30;99.90
42141;DHT22;27809;51.864;5.646;2022-11-15T07:08:15;10.30;99.90
42141;DHT22;27809;51.864;5.646;2022-11-15T07:10:40;10.30;99.90
42141;DHT22;27809;51.864;5.646;2022-11-15T07:13:06;10.30;99.90
42141;DHT22;27809;51.864;5.646;2022-11-15T07:15:31;10.40;99.90
42141;DHT22;27809;51.864;5.646;2022-11-15T07:18:00;10.40;99.90
42141;DHT22;27809;51.864;5.646;2022-11-15T07:20:26;10.30;99.90
42141;DHT22;27809;51.864;5.646;2022-11-15T07:23:05;10.30;99.90
42141;DHT22;27809;51.864;5.646;2022-11-15T07:25:31;10.70;99.90
42141;DHT22;27809;51.864;5.646;2022-11-15T07:27:57;10.50;99.90
42141;DHT22;27809;51.864;5.646;2022-11-15T07:30:23;10.40;99.90
42141;DHT22;27809;51.864;5.646;2022-11-15T07:33:00;12.70;99.90
42141;DHT22;27809;51.864;5.646;2022-11-15T07:35:26;11.20;99.90
42141;DHT22;27809;51.864;5.646;2022-11-15T07:37:56;10.80;99.90
42141;DHT22;27809;51.864;5.646;2022-11-15T07:40:22;10.70;99.90
42141;DHT22;27809;51.864;5.646;2022-11-15T07:42:48;10.60;99.90
42141;DHT22;27809;51.864;5.646;2022-11-15T07:45:24;10.50;99.90
42141;DHT22;27809;51.864;5.646;2022-11-15T07:47:52;10.50;99.90
42141;DHT22;27809;51.864;5.646;2022-11-15T07:50:18;10.60;99.90
42141;DHT22;27809;51.864;5.646;2022-11-15T07:52:44;10.60;99.90
42141;DHT22;27809;51.864;5.646;2022-11-15T07:55:09;10.60;99.90
42141;DHT22;27809;51.864;5.646;2022-11-15T07:57:35;10.60;99.90
42141;DHT22;27809;51.864;5.646;2022-11-15T08:00:01;10.70;99.90
42141;DHT22;27809;51.864;5.646;2022-11-15T08:02:27;10.70;99.90
42141;DHT22;27809;51.864;5.646;2022-11-15T08:04:52;10.60;99.90
42141;DHT22;27809;51.864;5.646;2022-11-15T08:07:18;10.70;99.90
42141;DHT22;27809;51.864;5.646;2022-11-15T08:09:43;10.70;99.90
42141;DHT22;27809;51.864;5.646;2022-11-15T08:12:09;10.70;99.90
42141;DHT22;27809;51.864;5.646;2022-11-15T08:14:35;10.70;99.90
42141;DHT22;27809;51.864;5.646;2022-11-15T08:17:01;10.70;99.90
42141;DHT22;27809;51.864;5.646;2022-11-15T08:19:26;10.70;99.90
42141;DHT22;27809;51.864;5.646;2022-11-15T08:21:52;10.70;99.90
42141;DHT22;27809;51.864;5.646;2022-11-15T08:24:17;10.70;99.90
42141;DHT22;27809;51.864;5.646;2022-11-15T08:26:44;10.70;99.90
42141;DHT22;27809;51.864;5.646;2022-11-15T08:29:10;10.70;99.90
42141;DHT22;27809;51.864;5.646;2022-11-15T08:31:36;10.80;99.90
42141;DHT22;27809;51.864;5.646;2022-11-15T08:34:03;10.70;99.90
42141;DHT22;27809;51.864;5.646;2022-11-15T08:36:28;10.70;99.90
42141;DHT22;27809;51.864;5.646;2022-11-15T08:38:54;10.70;99.90
42141;DHT22;27809;51.864;5.646;2022-11-15T08:41:26;10.70;99.90
42141;DHT22;27809;51.864;5.646;2022-11-15T08:43:52;10.70;99.90
42141;DHT22;27809;51.864;5.646;2022-11-15T08:46:17;10.70;99.90
42141;DHT22;27809;51.864;5.646;2022-11-15T08:48:44;10.70;99.90
42141;DHT22;27809;51.864;5.646;2022-11-15T08:51:09;10.70;99.90
42141;DHT22;27809;51.864;5.646;2022-11-15T08:53:35;10.70;99.90
42141;DHT22;27809;51.864;5.646;2022-11-15T08:56:01;10.90;99.90
42141;DHT22;27809;51.864;5.646;2022-11-15T08:58:26;10.80;99.90
42141;DHT22;27809;51.864;5.646;2022-11-15T09:00:52;10.90;99.90
42141;DHT22;27809;51.864;5.646;2022-11-15T09:03:17;10.90;99.90
42141;DHT22;27809;51.864;5.646;2022-11-15T09:05:43;11.70;99.90
42141;DHT22;27809;51.864;5.646;2022-11-15T09:08:08;11.30;99.90
42141;DHT22;27809;51.864;5.646;2022-11-15T09:10:34;11.10;99.90
42141;DHT22;27809;51.864;5.646;2022-11-15T09:12:59;11.00;99.90
42141;DHT22;27809;51.864;5.646;2022-11-15T09:15:25;11.00;99.90
42141;DHT22;27809;51.864;5.646;2022-11-15T09:17:51;11.00;99.90
42141;DHT22;27809;51.864;5.646;2022-11-15T09:20:16;11.00;99.90
42141;DHT22;27809;51.864;5.646;2022-11-15T09:22:42;11.00;99.90
42141;DHT22;27809;51.864;5.646;2022-11-15T09:25:08;11.10;99.90
42141;DHT22;27809;51.864;5.646;2022-11-15T09:27:33;11.20;99.90
42141;DHT22;27809;51.864;5.646;2022-11-15T09:29:59;11.30;99.90
42141;DHT22;27809;51.864;5.646;2022-11-15T09:32:28;11.20;99.90
42141;DHT22;27809;51.864;5.646;2022-11-15T09:34:54;11.20;99.90
42141;DHT22;27809;51.864;5.646;2022-11-15T09:37:19;11.30;99.90
42141;DHT22;27809;51.864;5.646;2022-11-15T09:39:45;11.20;99.90
42141;DHT22;27809;51.864;5.646;2022-11-15T09:45:39;11.20;99.90
42141;DHT22;27809;51.864;5.646;2022-11-15T09:50:41;11.30;99.90
42141;DHT22;27809;51.864;5.646;2022-11-15T09:53:15;11.30;99.90
42141;DHT22;27809;51.864;5.646;2022-11-15T09:55:58;11.40;99.90
42141;DHT22;27809;51.864;5.646;2022-11-15T09:58:39;11.40;99.90
42141;DHT22;27809;51.864;5.646;2022-11-15T10:01:16;11.50;99.90
42141;DHT22;27809;51.864;5.646;2022-11-15T10:03:42;11.40;99.90
42141;DHT22;27809;51.864;5.646;2022-11-15T10:06:24;11.40;99.90
42141;DHT22;27809;51.864;5.646;2022-11-15T10:09:14;11.40;99.90
42141;DHT22;27809;51.864;5.646;2022-11-15T10:11:41;14.70;99.90
42141;DHT22;27809;51.864;5.646;2022-11-15T10:16:55;11.80;99.90
42141;DHT22;27809;51.864;5.646;2022-11-15T10:22:30;11.70;99.90
42141;DHT22;27809;51.864;5.646;2022-11-15T10:27:36;11.50;99.90
42141;DHT22;27809;51.864;5.646;2022-11-15T10:30:06;11.50;99.90
42141;DHT22;27809;51.864;5.646;2022-11-15T10:32:36;11.70;99.90
42141;DHT22;27809;51.864;5.646;2022-11-15T10:35:25;12.90;99.90
42141;DHT22;27809;51.864;5.646;2022-11-15T10:37:51;12.80;99.90
42141;DHT22;27809;51.864;5.646;2022-11-15T10:40:20;12.10;99.90
42141;DHT22;27809;51.864;5.646;2022-11-15T10:42:46;11.90;99.90
42141;DHT22;27809;51.864;5.646;2022-11-15T10:45:30;12.60;99.90
42141;DHT22;27809;51.864;5.646;2022-11-15T10:50:46;13.70;99.90
42141;DHT22;27809;51.864;5.646;2022-11-15T10:55:51;11.70;99.90
42141;DHT22;27809;51.864;5.646;2022-11-15T11:00:46;11.50;99.90
42141;DHT22;27809;51.864;5.646;2022-11-15T11:03:33;11.60;99.90
42141;DHT22;27809;51.864;5.646;2022-11-15T11:06:09;12.30;99.90
42141;DHT22;27809;51.864;5.646;2022-11-15T11:08:36;11.90;99.90
42141;DHT22;27809;51.864;5.646;2022-11-15T11:11:03;11.70;99.90
42141;DHT22;27809;51.864;5.646;2022-11-15T11:13:39;11.70;99.90
42141;DHT22;27809;51.864;5.646;2022-11-15T11:18:55;11.70;99.90
42141;DHT22;27809;51.864;5.646;2022-11-15T11:27:36;11.80;99.90
42141;DHT22;27809;51.864;5.646;2022-11-15T11:30:24;11.70;99.90
42141;DHT22;27809;51.864;5.646;2022-11-15T11:33:12;11.80;99.90
42141;DHT22;27809;51.864;5.646;2022-11-15T11:35:43;11.80;99.90
42141;DHT22;27809;51.864;5.646;2022-11-15T11:43:41;12.20;99.90
42141;DHT22;27809;51.864;5.646;2022-11-15T11:49:15;12.00;99.90
42141;DHT22;27809;51.864;5.646;2022-11-15T11:51:53;11.90;99.90
42141;DHT22;27809;51.864;5.646;2022-11-15T11:54:38;11.80;99.90
42141;DHT22;27809;51.864;5.646;2022-11-15T12:00:26;11.80;99.90
42141;DHT22;27809;51.864;5.646;2022-11-15T12:05:59;11.80;99.90
42141;DHT22;27809;51.864;5.646;2022-11-15T12:08:49;12.80;99.90
42141;DHT22;27809;51.864;5.646;2022-11-15T12:11:17;12.00;99.90
42141;DHT22;27809;51.864;5.646;2022-11-15T12:13:45;11.70;99.90
42141;DHT22;27809;51.864;5.646;2022-11-15T12:16:18;11.70;99.90
42141;DHT22;27809;51.864;5.646;2022-11-15T12:18:50;11.60;99.90
42141;DHT22;27809;51.864;5.646;2022-11-15T12:21:27;11.70;99.90
42141;DHT22;27809;51.864;5.646;2022-11-15T12:24:00;11.70;99.90
42141;DHT22;27809;51.864;5.646;2022-11-15T12:26:41;11.60;99.90
42141;DHT22;27809;51.864;5.646;2022-11-15T12:29:33;11.70;99.90
42141;DHT22;27809;51.864;5.646;2022-11-15T12:32:00;11.70;99.90
42141;DHT22;27809;51.864;5.646;2022-11-15T12:36:53;11.70;99.90
42141;DHT22;27809;51.864;5.646;2022-11-15T12:39:19;11.80;99.90
42141;DHT22;27809;51.864;5.646;2022-11-15T13:02:36;11.70;99.90
42141;DHT22;27809;51.864;5.646;2022-11-15T13:08:00;11.70;99.80
42141;DHT22;27809;51.864;5.646;2022-11-15T13:12:57;11.60;99.90
42141;DHT22;27809;51.864;5.646;2022-11-15T13:15:54;11.60;99.90
42141;DHT22;27809;51.864;5.646;2022-11-15T13:20:55;11.60;99.90
42141;DHT22;27809;51.864;5.646;2022-11-15T13:23:22;11.60;98.30
42141;DHT22;27809;51.864;5.646;2022-11-15T13:26:10;11.70;98.50
42141;DHT22;27809;51.864;5.646;2022-11-15T13:28:45;11.60;99.90
42141;DHT22;27809;51.864;5.646;2022-11-15T13:31:19;11.70;99.30
42141;DHT22;27809;51.864;5.646;2022-11-15T13:33:46;11.70;99.70
42141;DHT22;27809;51.864;5.646;2022-11-15T13:36:19;11.60;99.20
42141;DHT22;27809;51.864;5.646;2022-11-15T13:39:04;11.50;99.90
42141;DHT22;27809;51.864;5.646;2022-11-15T13:41:33;11.60;99.20
42141;DHT22;27809;51.864;5.646;2022-11-15T13:43:59;11.60;99.90
42141;DHT22;27809;51.864;5.646;2022-11-15T13:46:32;11.60;99.40
42141;DHT22;27809;51.864;5.646;2022-11-15T13:51:43;11.50;99.90
42141;DHT22;27809;51.864;5.646;2022-11-15T13:56:35;11.40;99.90
42141;DHT22;27809;51.864;5.646;2022-11-15T13:59:17;11.40;99.90
42141;DHT22;27809;51.864;5.646;2022-11-15T14:01:44;11.40;99.90
42141;DHT22;27809;51.864;5.646;2022-11-15T14:04:13;11.50;99.90
42141;DHT22;27809;51.864;5.646;2022-11-15T14:06:57;11.60;98.70
42141;DHT22;27809;51.864;5.646;2022-11-15T14:09:35;11.60;98.50
42141;DHT22;27809;51.864;5.646;2022-11-15T14:12:22;11.60;98.20
42141;DHT22;27809;51.864;5.646;2022-11-15T14:14:48;11.60;99.30
42141;DHT22;27809;51.864;5.646;2022-11-15T14:19:55;11.60;97.90
42141;DHT22;27809;51.864;5.646;2022-11-15T14:27:38;11.60;98.00
42141;DHT22;27809;51.864;5.646;2022-11-15T14:30:04;11.60;96.60
42141;DHT22;27809;51.864;5.646;2022-11-15T14:32:45;11.70;96.80
42141;DHT22;27809;51.864;5.646;2022-11-15T14:35:17;11.60;97.90
42141;DHT22;27809;51.864;5.646;2022-11-15T14:37:44;11.70;97.30
42141;DHT22;27809;51.864;5.646;2022-11-15T14:40:16;11.70;96.40
42141;DHT22;27809;51.864;5.646;2022-11-15T14:42:43;11.70;94.80
42141;DHT22;27809;51.864;5.646;2022-11-15T14:45:17;11.80;94.30
42141;DHT22;27809;51.864;5.646;2022-11-15T14:47:43;11.80;95.00
42141;DHT22;27809;51.864;5.646;2022-11-15T14:50:13;11.70;96.20
42141;DHT22;27809;51.864;5.646;2022-11-15T14:52:39;11.60;96.50
42141;DHT22;27809;51.864;5.646;2022-11-15T14:55:17;11.70;95.20
42141;DHT22;27809;51.864;5.646;2022-11-15T14:57:44;11.70;95.50
42141;DHT22;27809;51.864;5.646;2022-11-15T15:00:11;11.60;95.50
42141;DHT22;27809;51.864;5.646;2022-11-15T15:02:37;11.70;94.00
42141;DHT22;27809;51.864;5.646;2022-11-15T15:05:14;11.70;93.80
42141;DHT22;27809;51.864;5.646;2022-11-15T15:07:40;11.60;95.10
42141;DHT22;27809;51.864;5.646;2022-11-15T15:10:05;11.50;97.10
42141;DHT22;27809;51.864;5.646;2022-11-15T15:12:31;11.50;95.90
42141;DHT22;27809;51.864;5.646;2022-11-15T15:14:56;11.60;93.70
42141;DHT22;27809;51.864;5.646;2022-11-15T15:17:22;11.50;97.60
42141;DHT22;27809;51.864;5.646;2022-11-15T15:19:47;11.50;93.80
42141;DHT22;27809;51.864;5.646;2022-11-15T15:22:18;11.60;94.00
42141;DHT22;27809;51.864;5.646;2022-11-15T15:24:45;11.60;94.10
42141;DHT22;27809;51.864;5.646;2022-11-15T15:27:12;11.70;93.50
42141;DHT22;27809;51.864;5.646;2022-11-15T15:29:38;12.00;92.50
42141;DHT22;27809;51.864;5.646;2022-11-15T15:32:04;14.30;81.90
42141;DHT22;27809;51.864;5.646;2022-11-15T15:34:29;12.40;86.90
42141;DHT22;27809;51.864;5.646;2022-11-15T15:37:23;11.80;91.10
42141;DHT22;27809;51.864;5.646;2022-11-15T15:39:55;11.70;91.60
42141;DHT22;27809;51.864;5.646;2022-11-15T15:42:22;11.60;92.90
42141;DHT22;27809;51.864;5.646;2022-11-15T15:44:49;11.60;93.40
42141;DHT22;27809;51.864;5.646;2022-11-15T15:47:22;11.90;91.60
42141;DHT22;27809;51.864;5.646;2022-11-15T15:49:49;11.90;89.60
42141;DHT22;27809;51.864;5.646;2022-11-15T15:52:15;11.80;90.40
42141;DHT22;27809;51.864;5.646;2022-11-15T15:54:41;11.90;90.20
42141;DHT22;27809;51.864;5.646;2022-11-15T15:57:08;11.80;90.50
42141;DHT22;27809;51.864;5.646;2022-11-15T15:59:35;11.70;90.80
42141;DHT22;27809;51.864;5.646;2022-11-15T16:02:01;11.80;91.00
42141;DHT22;27809;51.864;5.646;2022-11-15T16:04:26;11.70;91.80
42141;DHT22;27809;51.864;5.646;2022-11-15T16:06:58;11.80;90.70
42141;DHT22;27809;51.864;5.646;2022-11-15T16:09:24;11.80;92.60
42141;DHT22;27809;51.864;5.646;2022-11-15T16:12:09;11.90;94.60
42141;DHT22;27809;51.864;5.646;2022-11-15T16:14:35;11.90;92.30
42141;DHT22;27809;51.864;5.646;2022-11-15T16:17:01;11.80;93.60
42141;DHT22;27809;51.864;5.646;2022-11-15T16:19:26;11.80;93.50
42141;DHT22;27809;51.864;5.646;2022-11-15T16:21:52;11.80;94.10
42141;DHT22;27809;51.864;5.646;2022-11-15T16:24:18;11.90;93.70
42141;DHT22;27809;51.864;5.646;2022-11-15T16:26:45;13.60;97.80
42141;DHT22;27809;51.864;5.646;2022-11-15T16:29:11;17.80;77.40
42141;DHT22;27809;51.864;5.646;2022-11-15T16:31:37;15.30;62.70
42141;DHT22;27809;51.864;5.646;2022-11-15T16:34:02;13.00;85.70
42141;DHT22;27809;51.864;5.646;2022-11-15T16:36:31;12.40;91.80
42141;DHT22;27809;51.864;5.646;2022-11-15T16:38:58;12.10;94.20
42141;DHT22;27809;51.864;5.646;2022-11-15T16:41:24;12.10;94.50
42141;DHT22;27809;51.864;5.646;2022-11-15T16:43:49;12.10;94.80
42141;DHT22;27809;51.864;5.646;2022-11-15T16:46:24;12.10;95.20
42141;DHT22;27809;51.864;5.646;2022-11-15T16:48:50;12.10;95.60
42141;DHT22;27809;51.864;5.646;2022-11-15T16:51:16;12.10;95.90
42141;DHT22;27809;51.864;5.646;2022-11-15T16:53:42;12.10;96.50
42141;DHT22;27809;51.864;5.646;2022-11-15T16:56:27;12.10;97.00
42141;DHT22;27809;51.864;5.646;2022-11-15T16:58:54;12.10;97.20
42141;DHT22;27809;51.864;5.646;2022-11-15T17:01:24;12.00;99.70
42141;DHT22;27809;51.864;5.646;2022-11-15T17:03:51;11.90;99.90
42141;DHT22;27809;51.864;5.646;2022-11-15T17:06:17;11.80;99.90
42141;DHT22;27809;51.864;5.646;2022-11-15T17:08:43;11.80;99.90
42141;DHT22;27809;51.864;5.646;2022-11-15T17:11:13;11.80;99.90
42141;DHT22;27809;51.864;5.646;2022-11-15T17:13:39;11.70;99.90
42141;DHT22;27809;51.864;5.646;2022-11-15T17:16:06;11.70;99.90
42141;DHT22;27809;51.864;5.646;2022-11-15T17:18:32;11.70;99.90
42141;DHT22;27809;51.864;5.646;2022-11-15T17:23:31;11.60;99.90
42141;DHT22;27809;51.864;5.646;2022-11-15T17:26:01;11.40;99.90
42141;DHT22;27809;51.864;5.646;2022-11-15T17:28:32;11.30;99.90
42141;DHT22;27809;51.864;5.646;2022-11-15T17:30:58;11.40;99.90
42141;DHT22;27809;51.864;5.646;2022-11-15T17:33:25;11.30;99.90
42141;DHT22;27809;51.864;5.646;2022-11-15T17:35:59;11.20;99.90
42141;DHT22;27809;51.864;5.646;2022-11-15T17:38:25;11.20;99.90
42141;DHT22;27809;51.864;5.646;2022-11-15T17:41:04;11.30;99.90